createdAt,value
2023-01-19T00:04:03.298Z,1.78
2023-01-19T00:26:57.892Z,1.51
2023-01-19T00:30:47.470Z,1.48
2023-01-19T00:34:36.540Z,1.46
2023-01-19T00:38:25.526Z,1.46
2023-01-19T00:42:13.540Z,1.47
2023-01-19T00:46:02.715Z,1.49
2023-01-19T00:49:51.409Z,1.51
2023-01-19T00:53:40.712Z,1.53
2023-01-19T00:57:29.820Z,1.55
2023-01-19T01:01:19.858Z,1.57
2023-01-19T01:24:52.988Z,1.66
2023-01-19T01:28:40.423Z,1.65
2023-01-19T01:32:28.399Z,1.65
2023-01-19T01:36:15.990Z,1.64
2023-01-19T01:39:56.907Z,1.64
2023-01-19T01:47:43.049Z,1.58
2023-01-19T01:51:46.831Z,1.55
2023-01-19T01:55:35.867Z,1.53
2023-01-19T01:59:15.510Z,1.52
2023-01-19T02:03:19.401Z,1.49
2023-01-19T02:07:05.699Z,1.47
2023-01-19T02:10:54.089Z,1.44
2023-01-19T02:30:25.800Z,1.37
2023-01-19T02:34:14.920Z,1.37
2023-01-19T02:38:03.970Z,1.36
2023-01-19T02:41:53.286Z,1.36
2023-01-19T02:45:42.324Z,1.36
2023-01-19T02:49:32.060Z,1.36
2023-01-19T02:53:47.676Z,1.37
2023-01-19T02:57:54.455Z,1.40
2023-01-19T03:01:59.345Z,1.41
2023-01-19T03:14:40.412Z,1.46
2023-01-19T03:18:28.359Z,1.49
2023-01-19T03:22:15.398Z,1.53
2023-01-19T03:29:58.206Z,1.60
2023-01-19T03:33:47.194Z,1.61
2023-01-19T03:37:36.257Z,1.62
2023-01-19T03:41:25.302Z,1.62
2023-01-19T03:45:15.292Z,1.61
2023-01-19T03:49:05.757Z,1.61
2023-01-19T04:04:39.630Z,1.58
2023-01-19T04:08:30.797Z,1.57
2023-01-19T04:12:09.548Z,1.56
2023-01-19T04:15:58.673Z,1.54
2023-01-19T04:19:47.488Z,1.51
2023-01-19T04:23:36.577Z,1.50
2023-01-19T04:27:25.575Z,1.49
2023-01-19T04:31:15.275Z,1.48
2023-01-19T04:35:04.434Z,1.47
2023-01-19T04:38:53.601Z,1.45
2023-01-19T04:42:35.288Z,1.46
2023-01-19T04:46:24.253Z,1.47
2023-01-19T04:50:13.215Z,1.48
2023-01-19T04:54:02.146Z,1.50
2023-01-19T04:57:51.364Z,1.52
2023-01-19T05:01:40.679Z,1.53
2023-01-19T05:05:29.944Z,1.54
2023-01-19T05:09:19.225Z,1.53
2023-01-19T05:13:08.399Z,1.53
2023-01-19T05:16:57.946Z,1.52
2023-01-19T05:20:47.379Z,1.50
2023-01-19T05:24:36.475Z,1.47
2023-01-19T05:28:25.575Z,1.46
2023-01-19T05:32:15.375Z,1.44
2023-01-19T05:36:04.767Z,1.42
2023-01-19T05:39:54.333Z,1.41
2023-01-19T05:43:43.259Z,1.39
2023-01-19T05:47:32.381Z,1.38
2023-01-19T05:51:21.442Z,1.37
2023-01-19T05:55:10.498Z,1.35
2023-01-19T05:59:02.222Z,1.32
2023-01-19T06:02:52.548Z,1.30
2023-01-19T06:06:43.428Z,1.27
2023-01-19T06:10:33.607Z,1.27
2023-01-19T06:14:24.508Z,1.27
2023-01-19T06:18:13.480Z,1.27
2023-01-19T06:22:07.483Z,1.27
2023-01-19T06:25:58.351Z,1.28
2023-01-19T06:29:47.317Z,1.27
2023-01-19T06:33:36.235Z,1.26
2023-01-19T06:37:25.168Z,1.27
2023-01-19T06:41:13.431Z,1.27
2023-01-19T06:45:03.571Z,1.27
2023-01-19T06:48:54.669Z,1.27
2023-01-19T06:52:45.455Z,1.27
2023-01-19T06:56:36.498Z,1.27
2023-01-19T07:00:26.963Z,1.29
2023-01-19T07:04:16.395Z,1.31
2023-01-19T07:07:48.089Z,1.32
2023-01-19T07:23:50.220Z,1.42
2023-01-19T07:27:37.716Z,1.45
2023-01-19T07:31:25.495Z,1.47
2023-01-19T07:35:13.707Z,1.48
2023-01-19T07:39:01.418Z,1.51
2023-01-19T07:42:50.356Z,1.53
2023-01-19T07:46:38.248Z,1.54
2023-01-19T07:54:43.222Z,1.56
2023-01-19T07:58:31.170Z,1.55
2023-01-19T08:02:18.787Z,1.55
2023-01-19T08:06:06.770Z,1.51
2023-01-19T08:09:54.813Z,1.47
2023-01-19T08:13:43.062Z,1.42
2023-01-19T08:17:30.731Z,1.39
2023-01-19T08:21:19.357Z,1.36
2023-01-19T08:25:08.721Z,1.33
2023-01-19T08:40:54.506Z,1.23
2023-01-19T08:44:57.303Z,1.23
2023-01-19T08:48:46.997Z,1.23
2023-01-19T08:52:35.965Z,1.23
2023-01-19T08:56:25.166Z,1.22
2023-01-19T09:00:14.677Z,1.20
2023-01-19T09:04:03.754Z,1.19
2023-01-19T09:07:52.817Z,1.17
2023-01-19T09:11:44.797Z,1.16
2023-01-19T09:15:37.011Z,1.14
2023-01-19T09:19:26.362Z,1.13
2023-01-19T09:23:16.270Z,1.12
2023-01-19T09:31:22.264Z,1.10
2023-01-19T09:35:09.962Z,1.09
2023-01-19T09:38:52.853Z,1.06
2023-01-19T09:42:40.945Z,1.02
2023-01-19T09:47:24.130Z,0.98
2023-01-19T09:51:14.325Z,0.98
2023-01-19T09:55:11.136Z,1.00
2023-01-19T09:58:51.642Z,0.98
2023-01-19T10:11:06.082Z,0.90
2023-01-19T10:14:55.392Z,0.89
2023-01-19T10:32:52.363Z,0.83
2023-01-19T10:45:07.663Z,0.84
2023-01-19T10:48:56.771Z,0.86
2023-01-19T10:52:48.406Z,0.87
2023-01-19T10:56:50.074Z,0.89
2023-01-19T11:00:40.433Z,0.90
2023-01-19T11:04:36.266Z,0.91
2023-01-19T11:23:55.937Z,0.84
2023-01-19T11:27:44.978Z,0.83
2023-01-19T11:30:57.765Z,0.84
2023-01-19T11:35:06.162Z,0.84
2023-01-19T11:56:20.546Z,0.70
2023-01-19T11:59:39.410Z,0.70
2023-01-19T12:03:00.067Z,0.70
2023-01-19T12:06:38.717Z,0.71
2023-01-19T12:09:54.011Z,0.69
2023-01-19T12:25:05.504Z,0.67
2023-01-19T12:40:53.827Z,0.62
2023-01-19T12:44:51.768Z,0.61
2023-01-19T12:48:18.004Z,0.62
2023-01-19T12:51:47.644Z,0.61
2023-01-19T12:55:39.487Z,0.62
2023-01-19T12:59:28.954Z,0.60
2023-01-19T13:03:25.815Z,0.58
2023-01-19T13:23:29.741Z,0.50
2023-01-19T13:27:30.546Z,0.50
2023-01-19T13:35:20.358Z,0.47
2023-01-19T13:39:00.718Z,0.47
2023-01-19T13:42:31.087Z,0.45
2023-01-19T13:46:38.892Z,0.41
2023-01-19T14:06:09.308Z,0.36
2023-01-19T14:10:07.626Z,0.36
2023-01-19T14:22:23.202Z,0.39
2023-01-19T14:26:22.129Z,0.40
2023-01-19T14:30:15.652Z,0.42
2023-01-19T14:34:12.504Z,0.43
2023-01-19T14:38:01.764Z,0.43
2023-01-19T14:50:01.577Z,0.46
2023-01-19T14:53:58.718Z,0.48
2023-01-19T14:57:55.045Z,0.47
2023-01-19T15:01:46.315Z,0.45
2023-01-19T15:21:00.867Z,0.37
2023-01-19T15:24:49.998Z,0.39
2023-01-19T15:28:19.097Z,0.39
2023-01-19T15:32:08.173Z,0.39
2023-01-19T15:35:52.711Z,0.41
2023-01-19T15:55:15.943Z,0.45
2023-01-19T15:58:44.842Z,0.45
2023-01-19T16:02:34.472Z,0.44
2023-01-19T16:06:16.558Z,0.44
2023-01-19T16:09:56.987Z,0.41
2023-01-19T16:13:46.052Z,0.39
2023-01-19T16:17:27.649Z,0.37
2023-01-19T16:21:17.603Z,0.37
2023-01-19T16:25:06.842Z,0.38
2023-01-19T16:28:56.026Z,0.39
2023-01-19T16:32:04.803Z,0.44
2023-01-19T16:34:33.444Z,0.49
2023-01-19T16:38:02.357Z,0.52
2023-01-19T16:41:51.692Z,0.56
2023-01-19T16:45:40.731Z,0.57
2023-01-19T16:49:30.242Z,0.54
2023-01-19T16:53:19.329Z,0.48
2023-01-19T16:57:08.487Z,0.46
2023-01-19T17:00:59.779Z,0.45
2023-01-19T17:04:50.827Z,0.43
2023-01-19T17:08:41.583Z,0.39
2023-01-19T17:12:32.380Z,0.35
2023-01-19T17:16:21.927Z,0.33
2023-01-19T17:20:14.351Z,0.30
2023-01-19T17:39:58.853Z,0.21
2023-01-19T17:43:46.476Z,0.18
2023-01-19T17:47:36.892Z,0.16
2023-01-19T17:51:24.680Z,0.15
2023-01-19T17:55:12.766Z,0.16
2023-01-19T17:59:00.535Z,0.16
2023-01-19T18:02:48.518Z,0.16
2023-01-19T18:06:36.350Z,0.16
2023-01-19T18:10:23.994Z,0.17
2023-01-19T18:14:13.830Z,0.17
2023-01-19T18:18:01.478Z,0.17
2023-01-19T18:25:36.408Z,0.13
2023-01-19T18:45:04.382Z,0.11
2023-01-19T18:48:53.331Z,0.11
2023-01-19T18:52:42.371Z,0.11
2023-01-19T18:56:33.991Z,0.12
2023-01-19T19:00:24.153Z,0.13
2023-01-19T19:04:15.269Z,0.13
2023-01-19T19:08:06.273Z,0.13
2023-01-19T19:27:33.967Z,0.06
2023-01-19T19:31:23.452Z,0.07
2023-01-19T19:35:15.556Z,0.09
2023-01-19T19:39:05.517Z,0.11
2023-01-19T19:42:58.846Z,0.11
2023-01-19T19:47:00.721Z,0.09
2023-01-19T20:02:59.989Z,0.08
2023-01-19T20:06:42.925Z,0.07
2023-01-19T20:10:31.539Z,0.06
2023-01-19T20:14:49.915Z,0.04
2023-01-19T20:22:40.734Z,0.05
2023-01-19T20:26:30.623Z,0.04
2023-01-19T20:30:23.008Z,0.05
2023-01-19T20:34:13.007Z,0.07
2023-01-19T20:38:02.051Z,0.08
2023-01-19T20:41:51.587Z,0.08
2023-01-19T20:45:40.785Z,0.08
2023-01-19T20:49:29.810Z,0.10
2023-01-19T20:53:19.159Z,0.11
2023-01-19T20:57:09.404Z,0.10
2023-01-19T21:00:58.845Z,0.09
2023-01-19T21:04:43.211Z,0.10
2023-01-19T21:08:32.390Z,0.09
2023-01-19T21:12:21.717Z,0.09
2023-01-19T21:16:11.164Z,0.08
2023-01-19T21:20:00.629Z,0.07
2023-01-19T21:23:49.906Z,0.05
2023-01-19T21:27:39.079Z,0.05
2023-01-19T21:31:28.429Z,0.05
2023-01-19T21:35:18.384Z,0.04
2023-01-19T21:39:06.747Z,0.04
2023-01-19T21:42:55.822Z,0.05
2023-01-19T21:46:50.644Z,0.05
2023-01-19T22:10:06.214Z,-0.01
2023-01-19T22:13:55.499Z,-0.02
2023-01-19T22:17:44.515Z,-0.02
2023-01-19T22:21:33.984Z,-0.03
2023-01-19T22:25:23.104Z,-0.04
2023-01-19T22:29:12.097Z,-0.06
2023-01-19T22:33:01.706Z,-0.06
2023-01-19T22:36:57.692Z,-0.06
2023-01-19T22:52:45.425Z,-0.08
2023-01-19T22:56:31.896Z,-0.08
2023-01-19T23:00:08.201Z,-0.08
2023-01-19T23:12:19.629Z,-0.13
2023-01-19T23:16:07.794Z,-0.14
2023-01-19T23:19:55.386Z,-0.15
2023-01-19T23:23:43.240Z,-0.16
2023-01-19T23:27:30.850Z,-0.15
2023-01-19T23:31:18.881Z,-0.16
2023-01-19T23:35:00.355Z,-0.16
2023-01-19T23:38:48.225Z,-0.19
2023-01-19T23:42:36.550Z,-0.21
2023-01-19T23:46:24.970Z,-0.20
2023-01-19T23:50:13.282Z,-0.20
